createdAt,value
2019-05-05T00:01:00.132Z,12.93
2019-05-05T00:03:35.367Z,12.83
2019-05-05T00:06:07.638Z,12.83
2019-05-05T00:08:39.087Z,12.85
2019-05-05T00:11:11.255Z,12.77
2019-05-05T00:13:50.076Z,12.72
2019-05-05T00:16:35.177Z,12.70
2019-05-05T00:19:06.497Z,12.65
2019-05-05T00:21:37.230Z,12.69
2019-05-05T00:24:07.550Z,12.78
2019-05-05T00:26:38.180Z,12.81
2019-05-05T00:29:08.813Z,12.75
2019-05-05T00:31:39.647Z,12.57
2019-05-05T00:34:10.382Z,12.61
2019-05-05T00:36:40.810Z,12.53
2019-05-05T00:39:12.439Z,12.48
2019-05-05T00:41:44.768Z,12.41
2019-05-05T00:44:15.351Z,12.53
2019-05-05T00:46:51.321Z,12.47
2019-05-05T00:49:21.852Z,12.44
2019-05-05T00:51:54.565Z,12.33
2019-05-05T00:54:25.053Z,12.39
2019-05-05T00:56:55.685Z,12.43
2019-05-05T00:59:30.516Z,12.45
2019-05-05T01:02:04.613Z,12.31
2019-05-05T01:04:39.874Z,12.28
2019-05-05T01:07:11.305Z,12.31
2019-05-05T01:09:42.052Z,12.23
2019-05-05T01:12:14.829Z,12.29
2019-05-05T01:14:45.665Z,12.32
2019-05-05T01:17:16.402Z,12.28
2019-05-05T01:20:00.281Z,12.21
2019-05-05T01:22:22.152Z,12.26
2019-05-05T01:24:55.191Z,12.25
2019-05-05T01:27:25.650Z,12.26
2019-05-05T01:29:56.188Z,12.25
2019-05-05T01:32:28.374Z,12.16
2019-05-05T01:34:58.702Z,12.13
2019-05-05T01:37:30.867Z,12.18
2019-05-05T01:40:10.825Z,12.07
2019-05-05T01:42:41.242Z,11.98
2019-05-05T01:45:11.735Z,11.91
2019-05-05T01:47:45.227Z,11.88
2019-05-05T01:50:20.659Z,11.91
2019-05-05T01:52:46.919Z,11.91
2019-05-05T01:55:17.470Z,11.84
2019-05-05T01:57:48.173Z,11.87
2019-05-05T02:00:18.627Z,11.84
2019-05-05T02:02:49.537Z,11.81
2019-05-05T02:05:20.092Z,11.79
2019-05-05T02:07:50.932Z,11.77
2019-05-05T02:10:21.456Z,11.78
2019-05-05T02:12:51.888Z,11.74
2019-05-05T02:15:24.491Z,11.74
2019-05-05T02:17:55.166Z,11.80
2019-05-05T02:20:36.241Z,11.83
2019-05-05T02:23:07.208Z,11.78
2019-05-05T02:25:37.737Z,11.80
2019-05-05T02:28:08.437Z,11.64
2019-05-05T02:30:49.964Z,11.70
2019-05-05T02:33:21.712Z,11.70
2019-05-05T02:35:55.707Z,11.70
2019-05-05T02:38:26.529Z,11.64
2019-05-05T02:40:57.165Z,11.70
2019-05-05T02:43:28.843Z,11.69
2019-05-05T02:46:17.709Z,11.73
2019-05-05T02:48:49.868Z,11.86
2019-05-05T02:51:25.489Z,11.91
2019-05-05T02:53:54.785Z,11.84
2019-05-05T02:56:28.415Z,11.88
2019-05-05T02:59:04.210Z,12.22
2019-05-05T03:01:39.515Z,12.13
2019-05-05T03:04:10.345Z,12.51
2019-05-05T03:06:43.740Z,12.60
2019-05-05T03:09:17.134Z,13.00
2019-05-05T03:11:49.177Z,13.00
2019-05-05T03:14:20.317Z,13.09
2019-05-05T03:16:51.457Z,12.89
2019-05-05T03:19:23.823Z,12.90
2019-05-05T03:21:55.309Z,13.29
2019-05-05T03:24:26.039Z,13.31
2019-05-05T03:26:58.339Z,13.19
2019-05-05T03:29:29.568Z,13.26
2019-05-05T03:32:00.084Z,13.34
2019-05-05T03:34:30.714Z,13.44
2019-05-05T03:37:01.752Z,13.39
2019-05-05T03:39:34.047Z,13.43
2019-05-05T03:42:15.814Z,13.26
2019-05-05T03:44:48.599Z,13.33
2019-05-05T03:47:19.126Z,13.48
2019-05-05T03:49:49.729Z,13.65
2019-05-05T03:52:20.563Z,13.89
2019-05-05T03:54:51.323Z,13.73
2019-05-05T03:57:22.160Z,13.53
2019-05-05T03:59:54.761Z,13.68
2019-05-05T04:02:26.905Z,13.52
2019-05-05T04:05:08.389Z,13.64
2019-05-05T04:07:39.327Z,13.70
2019-05-05T04:10:10.265Z,13.69
2019-05-05T04:12:43.379Z,13.80
2019-05-05T04:15:14.160Z,13.90
2019-05-05T04:17:49.426Z,13.90
2019-05-05T04:20:21.565Z,14.13
2019-05-05T04:22:54.073Z,14.05
2019-05-05T04:25:24.426Z,14.30
2019-05-05T04:27:55.022Z,14.30
2019-05-05T04:30:25.654Z,14.59
2019-05-05T04:32:56.360Z,14.59
2019-05-05T04:35:26.917Z,14.74
2019-05-05T04:37:57.341Z,14.87
2019-05-05T04:40:27.872Z,15.14
2019-05-05T04:42:58.603Z,15.30
2019-05-05T04:45:29.235Z,15.53
2019-05-05T04:48:04.678Z,15.74
2019-05-05T04:50:44.091Z,15.94
2019-05-05T04:53:18.649Z,16.23
2019-05-05T04:55:49.372Z,16.61
2019-05-05T04:58:19.799Z,16.42
2019-05-05T05:00:50.606Z,16.80
2019-05-05T05:03:25.874Z,16.97
2019-05-05T05:06:00.977Z,16.95
2019-05-05T05:08:31.433Z,16.80
2019-05-05T05:11:03.642Z,16.83
2019-05-05T05:13:34.870Z,17.12
2019-05-05T05:16:05.478Z,17.33
2019-05-05T05:18:36.211Z,16.84
2019-05-05T05:21:06.944Z,17.24
2019-05-05T05:23:37.679Z,17.05
2019-05-05T05:26:08.309Z,17.13
2019-05-05T05:28:39.041Z,17.09
2019-05-05T05:31:10.287Z,17.67
2019-05-05T05:33:40.923Z,17.65
2019-05-05T05:36:11.556Z,17.76
2019-05-05T05:38:44.355Z,17.81
2019-05-05T05:41:17.110Z,17.78
2019-05-05T05:43:55.218Z,17.84
2019-05-05T05:46:33.476Z,18.16
2019-05-05T05:49:18.051Z,18.11
2019-05-05T05:51:49.003Z,18.01
2019-05-05T05:54:20.872Z,18.23
2019-05-05T05:56:53.667Z,18.01
2019-05-05T05:59:24.923Z,18.11
2019-05-05T06:02:09.205Z,18.24
2019-05-05T06:04:28.528Z,18.50
2019-05-05T06:06:58.964Z,18.58
2019-05-05T06:09:29.478Z,18.16
2019-05-05T06:12:00.087Z,18.36
2019-05-05T06:14:30.642Z,18.73
2019-05-05T06:17:04.307Z,18.53
2019-05-05T06:19:33.988Z,18.88
2019-05-05T06:22:04.579Z,18.85
2019-05-05T06:24:35.108Z,18.50
2019-05-05T06:27:05.640Z,18.26
2019-05-05T06:29:37.497Z,18.29
2019-05-05T06:32:08.235Z,18.44
2019-05-05T06:34:38.758Z,18.61
2019-05-05T06:37:09.286Z,18.47
2019-05-05T06:39:40.134Z,19.03
2019-05-05T06:42:15.974Z,18.78
2019-05-05T06:44:48.347Z,18.58
2019-05-05T06:47:20.826Z,18.90
2019-05-05T06:49:51.250Z,18.72
2019-05-05T06:52:22.287Z,18.93
2019-05-05T06:54:54.274Z,18.96
2019-05-05T06:57:24.986Z,19.04
2019-05-05T06:59:55.714Z,18.81
2019-05-05T07:02:26.550Z,18.71
2019-05-05T07:04:57.057Z,18.88
2019-05-05T07:07:27.610Z,19.07
2019-05-05T07:09:58.343Z,19.49
2019-05-05T07:12:28.872Z,20.06
2019-05-05T07:14:59.501Z,19.82
2019-05-05T07:17:29.930Z,19.88
2019-05-05T07:20:00.665Z,19.72
2019-05-05T07:22:31.292Z,19.72
2019-05-05T07:25:01.923Z,19.63
2019-05-05T07:27:33.820Z,19.42
2019-05-05T07:30:06.054Z,19.78
2019-05-05T07:32:36.680Z,19.91
2019-05-05T07:35:09.156Z,19.94
2019-05-05T07:37:39.683Z,19.87
2019-05-05T07:40:10.388Z,19.73
2019-05-05T07:42:43.971Z,20.03
2019-05-05T07:45:22.483Z,20.18
2019-05-05T07:47:47.679Z,20.68
2019-05-05T07:50:28.988Z,20.58
2019-05-05T07:52:51.225Z,20.27
2019-05-05T07:55:23.710Z,20.63
2019-05-05T07:57:54.122Z,20.31
2019-05-05T08:00:24.578Z,20.52
2019-05-05T08:02:55.700Z,20.81
2019-05-05T08:05:26.045Z,20.95
2019-05-05T08:07:56.574Z,21.13
2019-05-05T08:10:27.103Z,20.81
2019-05-05T08:12:57.630Z,20.95
2019-05-05T08:15:28.989Z,21.04
2019-05-05T08:18:04.433Z,21.35
2019-05-05T08:20:36.278Z,21.34
2019-05-05T08:23:09.657Z,20.98
2019-05-05T08:25:45.356Z,21.12
2019-05-05T08:28:19.614Z,21.25
2019-05-05T08:30:57.532Z,21.54
2019-05-05T08:33:28.072Z,21.57
2019-05-05T08:35:59.624Z,21.42
2019-05-05T08:38:31.677Z,21.44
2019-05-05T08:41:04.412Z,21.48
2019-05-05T08:43:35.611Z,21.84
2019-05-05T08:46:06.141Z,21.64
2019-05-05T08:48:36.977Z,21.90
2019-05-05T08:51:07.510Z,21.82
2019-05-05T08:53:44.876Z,21.71
2019-05-05T08:56:10.403Z,21.94
2019-05-05T08:58:43.678Z,22.06
2019-05-05T09:01:14.920Z,22.01
2019-05-05T09:03:45.679Z,22.31
2019-05-05T09:06:16.414Z,22.25
2019-05-05T09:08:47.245Z,22.28
2019-05-05T09:11:17.988Z,22.15
2019-05-05T09:13:48.814Z,22.38
2019-05-05T09:16:19.546Z,22.42
2019-05-05T09:18:57.827Z,22.46
2019-05-05T09:21:28.801Z,22.45
2019-05-05T09:24:03.202Z,22.44
2019-05-05T09:26:47.157Z,22.35
2019-05-05T09:29:27.926Z,22.31
2019-05-05T09:31:58.561Z,22.40
2019-05-05T09:34:29.396Z,22.39
2019-05-05T09:37:00.026Z,22.51
2019-05-05T09:39:30.759Z,22.60
2019-05-05T09:42:01.356Z,22.83
2019-05-05T09:44:34.467Z,22.73
2019-05-05T09:47:05.522Z,22.94
2019-05-05T09:49:37.174Z,23.03
2019-05-05T09:52:08.087Z,23.10
2019-05-05T09:54:38.644Z,22.94
2019-05-05T09:57:11.140Z,23.11
2019-05-05T09:59:43.928Z,22.90
2019-05-05T10:02:14.298Z,22.60
2019-05-05T10:04:45.030Z,22.48
2019-05-05T10:07:15.893Z,22.85
2019-05-05T10:09:46.622Z,23.24
2019-05-05T10:12:18.278Z,23.46
2019-05-05T10:14:48.804Z,23.61
2019-05-05T10:17:19.335Z,23.54
2019-05-05T10:19:49.773Z,23.59
2019-05-05T10:22:20.497Z,23.56
2019-05-05T10:24:55.138Z,23.49
2019-05-05T10:27:24.929Z,23.78
2019-05-05T10:29:55.563Z,23.93
2019-05-05T10:32:26.295Z,23.95
2019-05-05T10:35:00.999Z,23.88
2019-05-05T10:37:31.858Z,23.77
2019-05-05T10:40:03.657Z,24.05
2019-05-05T10:42:49.710Z,24.12
2019-05-05T10:45:21.362Z,24.29
2019-05-05T10:47:52.201Z,23.78
2019-05-05T10:50:24.682Z,24.01
2019-05-05T10:52:55.690Z,24.17
2019-05-05T10:55:26.242Z,23.88
2019-05-05T10:57:56.872Z,23.68
2019-05-05T11:00:29.038Z,24.00
2019-05-05T11:02:59.981Z,24.05
2019-05-05T11:05:31.713Z,24.19
2019-05-05T11:08:04.367Z,24.00
2019-05-05T11:10:36.376Z,23.91
2019-05-05T11:13:07.109Z,24.18
2019-05-05T11:15:37.919Z,24.73
2019-05-05T11:18:08.470Z,24.54
2019-05-05T11:20:39.072Z,24.23
2019-05-05T11:23:09.947Z,24.14
2019-05-05T11:25:40.466Z,23.83
2019-05-05T11:28:11.608Z,24.12
2019-05-05T11:30:44.177Z,24.24
2019-05-05T11:33:20.242Z,24.17
2019-05-05T11:36:01.831Z,23.77
2019-05-05T11:38:33.873Z,24.04
2019-05-05T11:41:05.862Z,23.80
2019-05-05T11:43:36.491Z,23.56
2019-05-05T11:46:07.328Z,23.60
2019-05-05T11:48:37.955Z,23.57
2019-05-05T11:51:08.820Z,23.76
2019-05-05T11:53:39.808Z,23.78
2019-05-05T11:56:10.261Z,23.63
2019-05-05T11:58:40.786Z,23.59
2019-05-05T12:01:13.696Z,23.66
2019-05-05T12:03:44.321Z,24.22
2019-05-05T12:06:15.248Z,24.43
2019-05-05T12:08:46.172Z,24.67
2019-05-05T12:11:18.223Z,24.33
2019-05-05T12:13:48.847Z,23.86
2019-05-05T12:16:34.510Z,23.66
2019-05-05T12:19:06.109Z,23.51
2019-05-05T12:21:36.844Z,23.59
2019-05-05T12:24:08.912Z,23.76
2019-05-05T12:26:47.013Z,23.50
2019-05-05T12:29:18.053Z,23.50
2019-05-05T12:31:49.403Z,23.44
2019-05-05T12:34:20.033Z,23.79
2019-05-05T12:36:50.562Z,24.23
2019-05-05T12:39:21.086Z,24.41
2019-05-05T12:41:54.111Z,24.12
2019-05-05T12:44:25.935Z,24.30
2019-05-05T12:47:03.832Z,24.06
2019-05-05T12:49:35.698Z,24.26
2019-05-05T12:52:06.944Z,24.64
2019-05-05T12:54:37.876Z,24.81
2019-05-05T12:57:09.479Z,24.66
2019-05-05T12:59:40.372Z,24.56
2019-05-05T13:02:11.615Z,24.07
2019-05-05T13:04:43.783Z,23.96
2019-05-05T13:07:14.718Z,23.64
2019-05-05T13:09:45.125Z,23.52
2019-05-05T13:12:15.751Z,23.22
2019-05-05T13:14:47.951Z,23.32
2019-05-05T13:17:18.475Z,23.49
2019-05-05T13:19:50.636Z,23.60
2019-05-05T13:22:26.197Z,24.08
2019-05-05T13:25:01.937Z,24.07
2019-05-05T13:27:38.608Z,24.02
2019-05-05T13:30:09.752Z,23.98
2019-05-05T13:32:40.379Z,23.70
2019-05-05T13:35:14.380Z,23.99
2019-05-05T13:37:44.399Z,23.59
2019-05-05T13:40:15.346Z,23.53
2019-05-05T13:42:45.878Z,23.36
2019-05-05T13:45:24.186Z,23.11
2019-05-05T13:47:54.916Z,23.26
2019-05-05T13:50:34.177Z,23.11
2019-05-05T13:53:06.080Z,23.09
2019-05-05T13:55:36.510Z,22.77
2019-05-05T13:58:08.782Z,22.77
2019-05-05T14:00:39.818Z,22.67
2019-05-05T14:03:10.583Z,22.80
2019-05-05T14:05:43.697Z,22.59
2019-05-05T14:08:14.820Z,22.47
2019-05-05T14:10:45.751Z,22.54
2019-05-05T14:13:16.485Z,22.58
2019-05-05T14:15:48.089Z,22.58
2019-05-05T14:18:18.973Z,22.57
2019-05-05T14:20:49.809Z,22.60
2019-05-05T14:23:20.544Z,22.53
2019-05-05T14:25:51.090Z,22.76
2019-05-05T14:28:23.572Z,22.82
2019-05-05T14:30:56.966Z,22.86
2019-05-05T14:33:29.110Z,22.79
2019-05-05T14:36:13.779Z,22.80
2019-05-05T14:38:45.936Z,22.75
2019-05-05T14:41:16.344Z,22.56
2019-05-05T14:43:47.199Z,22.54
2019-05-05T14:46:17.830Z,22.61
2019-05-05T14:48:49.616Z,22.61
2019-05-05T14:51:20.741Z,22.42
2019-05-05T14:53:51.232Z,22.36
2019-05-05T14:56:22.094Z,22.34
2019-05-05T14:58:54.341Z,22.50
2019-05-05T15:01:25.215Z,22.45
2019-05-05T15:03:56.647Z,22.23
2019-05-05T15:06:29.426Z,22.27
2019-05-05T15:09:07.943Z,22.34
2019-05-05T15:11:40.623Z,22.23
2019-05-05T15:14:11.150Z,22.20
2019-05-05T15:16:43.671Z,22.27
2019-05-05T15:19:14.580Z,22.24
2019-05-05T15:21:48.763Z,22.24
2019-05-05T15:24:18.696Z,22.14
2019-05-05T15:26:52.258Z,22.13
2019-05-05T15:29:21.391Z,22.00
2019-05-05T15:31:53.849Z,22.00
2019-05-05T15:34:24.798Z,21.99
2019-05-05T15:36:55.273Z,21.98
2019-05-05T15:39:25.760Z,21.88
2019-05-05T15:41:56.487Z,21.77
2019-05-05T15:44:27.327Z,21.82
2019-05-05T15:46:58.169Z,21.76
2019-05-05T15:49:28.892Z,21.68
2019-05-05T15:51:59.705Z,21.62
2019-05-05T15:54:30.156Z,21.58
2019-05-05T15:57:05.380Z,21.53
2019-05-05T15:59:34.506Z,21.52
2019-05-05T16:02:05.910Z,21.42
2019-05-05T16:04:36.469Z,21.37
2019-05-05T16:07:06.995Z,21.31
2019-05-05T16:09:37.523Z,21.26
2019-05-05T16:12:08.223Z,21.21
2019-05-05T16:14:41.036Z,21.05
2019-05-05T16:17:20.067Z,21.01
2019-05-05T16:19:55.375Z,20.94
2019-05-05T16:22:34.521Z,20.87
2019-05-05T16:25:17.148Z,20.83
2019-05-05T16:27:47.674Z,20.76
2019-05-05T16:30:19.743Z,20.62
2019-05-05T16:32:50.271Z,20.45
2019-05-05T16:35:21.108Z,20.37
2019-05-05T16:37:51.600Z,20.27
2019-05-05T16:40:25.289Z,20.25
2019-05-05T16:42:54.736Z,20.16
2019-05-05T16:45:26.394Z,20.03
2019-05-05T16:47:57.127Z,19.94
2019-05-05T16:50:28.680Z,19.91
2019-05-05T16:53:07.092Z,19.85
2019-05-05T16:55:39.462Z,19.82
2019-05-05T16:58:09.892Z,19.65
2019-05-05T17:00:40.930Z,19.56
2019-05-05T17:03:13.478Z,19.46
2019-05-05T17:05:46.786Z,19.44
2019-05-05T17:08:18.762Z,19.45
2019-05-05T17:10:49.292Z,19.42
2019-05-05T17:13:21.458Z,19.34
2019-05-05T17:16:04.080Z,19.16
2019-05-05T17:18:36.459Z,19.00
2019-05-05T17:21:08.812Z,18.97
2019-05-05T17:23:39.547Z,18.85
2019-05-05T17:26:10.176Z,18.86
2019-05-05T17:28:40.807Z,18.77
2019-05-05T17:31:11.542Z,18.65
2019-05-05T17:33:44.184Z,18.69
2019-05-05T17:36:25.604Z,18.74
2019-05-05T17:38:56.646Z,18.51
2019-05-05T17:41:47.447Z,18.42
2019-05-05T17:44:25.245Z,18.51
2019-05-05T17:47:13.905Z,18.46
2019-05-05T17:50:01.226Z,18.47
2019-05-05T17:52:34.386Z,18.22
2019-05-05T17:55:07.295Z,18.07
2019-05-05T17:57:37.930Z,17.98
2019-05-05T18:00:08.765Z,18.07
2019-05-05T18:02:39.598Z,17.99
2019-05-05T18:05:10.400Z,18.00
2019-05-05T18:07:44.097Z,18.03
2019-05-05T18:10:19.272Z,18.04
2019-05-05T18:12:51.513Z,18.09
2019-05-05T18:15:40.099Z,18.02
2019-05-05T18:18:10.723Z,18.10
2019-05-05T18:20:42.276Z,18.09
2019-05-05T18:23:13.848Z,17.94
2019-05-05T18:25:45.381Z,17.85
2019-05-05T18:28:19.911Z,17.87
2019-05-05T18:30:48.487Z,17.90
2019-05-05T18:33:19.118Z,17.86
2019-05-05T18:35:50.835Z,17.81
2019-05-05T18:38:23.673Z,17.83
2019-05-05T18:40:55.617Z,17.71
2019-05-05T18:43:27.786Z,17.79
2019-05-05T18:46:04.621Z,17.66
2019-05-05T18:48:34.983Z,17.58
2019-05-05T18:51:06.589Z,17.51
2019-05-05T18:53:37.985Z,17.46
2019-05-05T18:56:08.618Z,17.55
2019-05-05T18:58:39.249Z,17.42
2019-05-05T19:01:15.818Z,17.39
2019-05-05T19:04:04.257Z,17.25
2019-05-05T19:06:37.333Z,17.26
2019-05-05T19:09:09.623Z,17.10
2019-05-05T19:11:40.358Z,17.03
2019-05-05T19:14:10.785Z,16.98
2019-05-05T19:16:41.626Z,17.01
2019-05-05T19:19:14.228Z,17.05
2019-05-05T19:22:04.314Z,17.04
2019-05-05T19:24:35.480Z,16.89
2019-05-05T19:27:06.262Z,16.94
2019-05-05T19:29:39.247Z,16.89
2019-05-05T19:32:10.086Z,16.76
2019-05-05T19:34:40.611Z,16.66
2019-05-05T19:37:13.787Z,16.65
2019-05-05T19:39:43.583Z,16.64
2019-05-05T19:42:14.553Z,16.69
2019-05-05T19:44:45.086Z,16.56
2019-05-05T19:47:17.247Z,16.45
2019-05-05T19:49:55.223Z,16.51
2019-05-05T19:52:26.171Z,16.44
2019-05-05T19:54:56.716Z,16.37
2019-05-05T19:57:27.349Z,16.22
2019-05-05T19:59:57.775Z,16.17
2019-05-05T20:02:28.576Z,16.24
2019-05-05T20:04:59.036Z,16.17
2019-05-05T20:07:29.614Z,16.11
2019-05-05T20:10:00.611Z,16.15
2019-05-05T20:12:33.415Z,16.09
2019-05-05T20:15:05.861Z,15.98
2019-05-05T20:17:37.895Z,16.14
2019-05-05T20:20:08.861Z,16.13
2019-05-05T20:22:39.806Z,16.07
2019-05-05T20:25:10.338Z,15.98
2019-05-05T20:27:40.962Z,15.89
2019-05-05T20:30:14.071Z,15.88
2019-05-05T20:32:51.626Z,15.84
2019-05-05T20:35:34.622Z,15.80
2019-05-05T20:38:15.946Z,15.72
2019-05-05T20:41:04.395Z,15.76
2019-05-05T20:43:35.336Z,15.75
2019-05-05T20:46:05.860Z,15.66
2019-05-05T20:48:41.006Z,15.67
2019-05-05T20:51:10.194Z,15.73
2019-05-05T20:53:40.928Z,15.68
2019-05-05T20:56:11.762Z,15.62
2019-05-05T20:58:43.972Z,15.56
2019-05-05T21:01:14.979Z,15.60
2019-05-05T21:03:45.496Z,15.55
2019-05-05T21:06:15.996Z,15.56
2019-05-05T21:08:46.553Z,15.59
2019-05-05T21:11:17.190Z,15.56
2019-05-05T21:13:49.044Z,15.43
2019-05-05T21:16:19.779Z,15.53
2019-05-05T21:18:50.309Z,15.45
2019-05-05T21:21:24.653Z,15.46
2019-05-05T21:24:03.937Z,15.39
2019-05-05T21:26:53.446Z,15.43
2019-05-05T21:29:24.270Z,15.37
2019-05-05T21:31:55.069Z,15.30
2019-05-05T21:34:26.759Z,15.28
2019-05-05T21:36:57.494Z,15.27
2019-05-05T21:39:28.327Z,15.16
2019-05-05T21:41:59.060Z,15.14
2019-05-05T21:44:29.588Z,15.21
2019-05-05T21:47:00.227Z,15.20
2019-05-05T21:49:30.849Z,15.16
2019-05-05T21:52:14.211Z,15.13
2019-05-05T21:55:01.194Z,15.06
2019-05-05T21:57:39.506Z,15.05
2019-05-05T22:00:13.868Z,14.97
2019-05-05T22:02:46.292Z,14.87
2019-05-05T22:05:17.029Z,14.80
2019-05-05T22:07:47.967Z,14.78
2019-05-05T22:10:18.502Z,14.69
2019-05-05T22:12:49.128Z,14.67
2019-05-05T22:15:19.756Z,14.58
2019-05-05T22:17:50.285Z,14.61
2019-05-05T22:20:22.656Z,14.61
2019-05-05T22:22:54.281Z,14.62
2019-05-05T22:25:24.943Z,14.60
2019-05-05T22:27:57.302Z,14.51
2019-05-05T22:30:28.046Z,14.53
2019-05-05T22:32:58.576Z,14.58
2019-05-05T22:35:29.004Z,14.53
2019-05-05T22:37:59.633Z,14.54
2019-05-05T22:40:30.264Z,14.54
2019-05-05T22:43:00.794Z,14.48
2019-05-05T22:45:31.324Z,14.38
2019-05-05T22:48:01.851Z,14.46
2019-05-05T22:50:34.042Z,14.45
2019-05-05T22:53:04.926Z,14.44
2019-05-05T22:55:35.483Z,14.33
2019-05-05T22:58:05.909Z,14.49
2019-05-05T23:00:36.643Z,14.57
2019-05-05T23:03:13.680Z,14.50
2019-05-05T23:06:00.741Z,14.48
2019-05-05T23:08:31.474Z,14.54
2019-05-05T23:11:03.898Z,14.47
2019-05-05T23:13:34.273Z,14.50
2019-05-05T23:16:09.510Z,14.47
2019-05-05T23:18:40.041Z,14.48
2019-05-05T23:21:15.596Z,14.52
2019-05-05T23:23:56.045Z,14.52
2019-05-05T23:26:35.691Z,14.44
2019-05-05T23:29:04.065Z,14.48
2019-05-05T23:31:34.594Z,14.21
2019-05-05T23:34:05.223Z,14.08
2019-05-05T23:36:35.649Z,13.99
2019-05-05T23:39:06.557Z,13.90
2019-05-05T23:41:37.115Z,13.80
2019-05-05T23:44:07.646Z,13.74
2019-05-05T23:46:38.071Z,13.69
2019-05-05T23:49:08.395Z,13.82
2019-05-05T23:51:39.126Z,13.89
2019-05-05T23:54:10.031Z,13.91
2019-05-05T23:56:40.594Z,13.98
2019-05-05T23:59:13.543Z,14.08
